Sweetwater, Nebraska
Current Conditions -  °F | °C
As of 10:15 PM on Monday 22 Dec 2014 (Local Time) from KEAR Reporting Station
Overcast Overcast  
Wind Chill: 26°   Ceiling: 2100
Heat Index: 36°   Visibility: 10mi
Dew Point: 30°   Wind: 15mph
Humidity: 81%   Direction: 280°W
Pressure: 29.56"   Gusts: NA
Location:  41.0033°N, 98.8321°W
Report Text: KEAR 230415Z 28013KT 10SM BKN021 BKN026 OVC031 02/M01 A2956 RMK AO1
Loading
Personal Weather Stations






























Interactive Weather Map New forecast layout! Learn more

10-Day Weather Forecast

Advertisements
Track Severe Weather on mobile